• Join FlightAware (Why Join?)
  • Login
  • US Flag 
05:58PM EDT


 

Airport Tracker/Info


-or-


 

Live Flight TrackerFlight Track Log ✈ XOJ578 ✈ 14-Jun-2013 ✈ KVNY - KLAS

Flight Track Log - Related Links

Times and Time Zones

All times are in EDT time to prevent confusion due to time zone crossing. See the XOJ578 flight status page for this flight to view local times or setup timezone preferences in your user account.

Time Position Orientation Groundspeed Altitude Reporting Facility
EDT Latitude Longitude Course Direction KTS MPH feet Rate Location/Type
08:49PM 34.1667 -118.4833 109° East 194 223 2,500  Level Southern California TRACON
08:50PM 34.1508 -118.4289 109° East 230 265 6,000 3,900 Climbing Los Angeles Center
08:51PM 34.2133 -118.4225 North 262 302 9,600 3,060 Climbing Los Angeles Center
08:52PM 34.2883 -118.4253 358° North 304 350 12,400 3,000 Climbing Los Angeles Center
08:53PM 34.3719 -118.3794 24° Northeast 328 377 15,900 2,940 Climbing Los Angeles Center
08:54PM 34.4108 -118.3006 59° Northeast 347 399 18,500 3,240 Climbing Los Angeles Center
08:55PM 34.4617 -118.1447 68° East 358 412 22,700 3,180 Climbing Los Angeles Center
08:56PM 34.4967 -118.0386 68° East 375 432 25,100 1,980 Climbing Los Angeles Center
08:57PM 34.5375 -117.9108 69° East 406 467 26,800 900 Climbing Los Angeles Center
08:58PM 34.5931 -117.7431 68° East 446 513 27,000 60 Climbing Los Angeles Center
08:59PM 34.6381 -117.6006 69° East 455 524 27,000  Level Los Angeles Center
09:00PM 34.6833 -117.4611 68° East 450 518 27,000  Level Los Angeles Center
09:01PM 34.7186 -117.3481 69° East 451 519 27,000  Level Los Angeles Center
09:02PM 34.7731 -117.1764 69° East 457 526 27,000  Level Los Angeles Center
09:03PM 34.8283 -117.0017 69° East 461 531 27,000  Level Los Angeles Center
09:04PM 34.8819 -116.8647 64° Northeast 450 518 27,000  Level Los Angeles Center
09:05PM 34.9461 -116.7306 60° Northeast 457 526 27,000  Level Los Angeles Center
09:06PM 35.0103 -116.5958 60° Northeast 462 532 27,000 -900 Level Los Angeles Center
09:07PM 35.0725 -116.4642 60° Northeast 454 522 25,200 -1,860 Descending Los Angeles Center
09:08PM 35.1597 -116.3281 52° Northeast 430 495 23,200 -1,500 Descending Los Angeles Center
09:09PM 35.2414 -116.2264 45° Northeast 422 486 22,200 -1,020 Descending Los Angeles Center
09:11PM 35.3197 -116.1281 46° Northeast 412 474 21,200 -960 Descending Los Angeles Center
09:12PM 35.3978 -116.0281 46° Northeast 408 470 20,200 -1,320 Descending Los Angeles Center
09:13PM 35.4753 -115.9300 46° Northeast 403 464 18,500 -2,040 Descending Los Angeles Center
09:13PM 35.5553 -115.8378 43° Northeast 386 444 16,400 -2,160 Descending Los Angeles Center
09:15PM 35.6294 -115.7400 47° Northeast 365 420 14,300 -1,560 Descending Los Angeles Center
09:16PM 35.6956 -115.6556 46° Northeast 341 392 13,100 -600 Descending Los Angeles Center
09:17PM 35.7742 -115.5761 39° Northeast 327 376 13,000 -120 Descending Los Angeles Center
09:17PM 35.8014 -115.5764 360° North 325 374 13,000  Level Los Angeles Center
09:18PM 35.8578 -115.5475 23° Northeast 335 386 13,000  Level Los Angeles Center
09:19PM 35.9081 -115.4403 60° Northeast 325 374 13,000 -840 Level Los Angeles Center
09:20PM 35.9483 -115.3564 59° Northeast 322 371 11,400 -1,560 Descending Los Angeles Center
09:21PM 35.9953 -115.2536 61° Northeast 319 367 9,800 -1,380 Descending Los Angeles Center
09:22PM 36.0167 -115.1825 70° East 282 325 8,800 -960 Descending Los Angeles Center
09:23PM 36.0142 -115.0822 92° East 244 281 8,000 -780 Descending Los Angeles Center
09:24PM 36.0639 -115.0525 26° Northeast 212 244 7,200 -1,200 Descending Los Angeles Center
09:25PM 36.1206 -115.0444 North 191 220 5,500 -1,800 Descending Los Angeles Center
09:26PM 36.1333 -115.0933 288° West 179 206 3,800 -1,680 Descending Los Angeles Center
09:26PM 36.1367 -115.1042 291° West 187 215 3,600 -1,020 Descending Los Angeles Center
09:27PM 36.1122 -115.1456 234° Southwest 144 166 2,500 -1,140 Descending Los Angeles Center
09:29PM 36.0801 -115.1523 270° West  Level Estimated
09:36PM 36.0801 -115.1523 270° West  Level Estimated